createdAt,value
2022-09-07T00:02:04.883Z,89.10
2022-09-07T00:04:31.843Z,88.70
2022-09-07T00:06:58.586Z,88.60
2022-09-07T00:09:25.453Z,88.40
2022-09-07T00:11:52.179Z,88.30
2022-09-07T00:14:18.930Z,88.20
2022-09-07T00:16:45.635Z,88.20
2022-09-07T00:19:12.302Z,88.00
2022-09-07T00:21:39.039Z,87.70
2022-09-07T00:24:05.950Z,88.10
2022-09-07T00:26:32.732Z,88.00
2022-09-07T00:29:02.000Z,88.30
2022-09-07T00:31:30.257Z,88.30
2022-09-07T00:33:59.659Z,88.50
2022-09-07T00:36:26.961Z,88.60
2022-09-07T00:38:54.778Z,88.60
2022-09-07T00:41:22.249Z,88.50
2022-09-07T00:43:57.762Z,88.50
2022-09-07T00:46:29.730Z,88.70
2022-09-07T00:49:12.386Z,89.60
2022-09-07T00:51:53.414Z,89.80
2022-09-07T00:54:27.348Z,89.80
2022-09-07T00:56:54.273Z,89.60
2022-09-07T00:59:26.399Z,89.80
2022-09-07T01:01:53.456Z,89.80
2022-09-07T01:04:22.111Z,89.80
2022-09-07T01:06:49.432Z,89.80
2022-09-07T01:09:19.669Z,89.70
2022-09-07T01:11:50.874Z,89.60
2022-09-07T01:14:25.147Z,89.80
2022-09-07T01:17:18.886Z,89.70
2022-09-07T01:20:09.054Z,89.80
2022-09-07T01:23:04.609Z,89.80
2022-09-07T01:25:51.363Z,89.70
2022-09-07T01:28:21.995Z,89.80
2022-09-07T01:30:58.509Z,89.80
2022-09-07T01:33:51.630Z,89.80
2022-09-07T01:36:48.073Z,89.80
2022-09-07T01:39:15.858Z,89.80
2022-09-07T01:42:07.153Z,89.40
2022-09-07T01:44:46.457Z,89.00
2022-09-07T01:47:23.070Z,89.60
2022-09-07T01:50:00.192Z,89.80
2022-09-07T01:52:42.449Z,89.80
2022-09-07T01:55:26.368Z,89.80
2022-09-07T01:58:19.797Z,89.80
2022-09-07T02:00:53.794Z,89.80
2022-09-07T02:03:37.341Z,89.80
2022-09-07T02:06:24.270Z,89.80
2022-09-07T02:09:00.815Z,89.80
2022-09-07T02:11:42.126Z,89.80
2022-09-07T02:14:20.286Z,89.80
2022-09-07T02:17:13.465Z,89.80
2022-09-07T02:19:49.278Z,89.80
2022-09-07T02:22:23.044Z,89.80
2022-09-07T02:24:53.350Z,89.80
2022-09-07T02:27:27.011Z,89.80
2022-09-07T02:29:54.150Z,89.80
2022-09-07T02:32:21.028Z,89.80
2022-09-07T02:34:47.712Z,89.80
2022-09-07T02:37:16.110Z,89.80
2022-09-07T02:39:42.939Z,89.80
2022-09-07T02:42:09.853Z,89.80
2022-09-07T02:44:39.566Z,89.80
2022-09-07T02:47:06.308Z,89.80
2022-09-07T02:50:08.958Z,89.80
2022-09-07T02:52:41.514Z,89.80
2022-09-07T02:55:33.282Z,89.80
2022-09-07T02:58:15.056Z,89.80
2022-09-07T03:01:07.885Z,89.80
2022-09-07T03:03:52.029Z,89.80
2022-09-07T03:06:36.897Z,89.80
2022-09-07T03:09:12.990Z,89.80
2022-09-07T03:11:39.798Z,89.80
2022-09-07T03:14:18.434Z,89.80
2022-09-07T03:16:46.337Z,89.80
2022-09-07T03:19:13.074Z,89.80
2022-09-07T03:21:39.777Z,89.80
2022-09-07T03:24:06.877Z,89.80
2022-09-07T03:26:34.057Z,89.80
2022-09-07T03:29:00.877Z,89.80
2022-09-07T03:31:27.621Z,89.80
2022-09-07T03:33:55.366Z,89.80
2022-09-07T03:36:22.081Z,89.80
2022-09-07T03:38:48.751Z,89.80
2022-09-07T03:41:15.501Z,89.80
2022-09-07T03:43:42.275Z,89.80
2022-09-07T03:46:10.422Z,89.80
2022-09-07T03:48:39.325Z,89.80
2022-09-07T03:51:09.077Z,89.80
2022-09-07T03:53:39.323Z,89.80
2022-09-07T03:56:10.366Z,89.80
2022-09-07T03:58:37.503Z,89.80
2022-09-07T04:01:09.561Z,89.80
2022-09-07T04:03:36.569Z,89.80
2022-09-07T04:06:04.335Z,89.80
2022-09-07T04:08:33.658Z,89.80
2022-09-07T04:11:02.725Z,89.80
2022-09-07T04:13:30.512Z,89.80
2022-09-07T04:15:57.576Z,89.80
2022-09-07T04:18:25.223Z,89.80
2022-09-07T04:20:52.013Z,89.80
2022-09-07T04:23:19.321Z,89.80
2022-09-07T04:25:50.350Z,89.80
2022-09-07T04:28:19.164Z,89.80
2022-09-07T04:30:46.509Z,89.80
2022-09-07T04:33:14.149Z,89.80
2022-09-07T04:35:42.128Z,89.80
2022-09-07T04:38:13.512Z,89.80
2022-09-07T04:40:40.218Z,89.80
2022-09-07T04:43:08.112Z,89.80
2022-09-07T04:45:37.229Z,89.80
2022-09-07T04:48:04.741Z,89.60
2022-09-07T04:50:32.356Z,89.80
2022-09-07T04:52:59.073Z,89.80
2022-09-07T04:55:25.766Z,89.80
2022-09-07T04:57:52.449Z,89.80
2022-09-07T05:00:19.489Z,89.80
2022-09-07T05:02:46.274Z,89.80
2022-09-07T05:05:13.144Z,89.60
2022-09-07T05:07:39.893Z,89.80
2022-09-07T05:10:06.749Z,89.80
2022-09-07T05:12:33.424Z,89.80
2022-09-07T05:15:00.360Z,89.80
2022-09-07T05:17:27.186Z,89.80
2022-09-07T05:19:54.886Z,89.80
2022-09-07T05:22:22.291Z,89.80
2022-09-07T05:24:49.017Z,89.80
2022-09-07T05:27:15.700Z,89.80
2022-09-07T05:32:29.759Z,89.80
2022-09-07T05:34:56.490Z,89.80
2022-09-07T05:37:23.305Z,89.80
2022-09-07T05:39:51.810Z,89.80
2022-09-07T05:42:18.622Z,89.80
2022-09-07T05:44:45.795Z,89.80
2022-09-07T05:47:12.873Z,89.80
2022-09-07T05:49:39.647Z,89.80
2022-09-07T05:52:06.787Z,89.80
2022-09-07T05:54:33.554Z,89.80
2022-09-07T05:57:00.475Z,89.80
2022-09-07T05:59:27.178Z,89.80
2022-09-07T06:01:53.968Z,89.80
2022-09-07T06:04:20.742Z,89.80
2022-09-07T06:07:04.554Z,89.80
2022-09-07T06:12:35.109Z,89.80
2022-09-07T06:15:01.804Z,89.80
2022-09-07T06:17:29.552Z,89.80
2022-09-07T06:19:56.335Z,89.80
2022-09-07T06:22:24.415Z,89.80
2022-09-07T06:24:52.524Z,89.80
2022-09-07T06:27:19.213Z,89.80
2022-09-07T06:29:45.919Z,89.80
2022-09-07T06:34:59.290Z,89.80
2022-09-07T06:37:26.120Z,89.80
2022-09-07T06:39:52.882Z,89.80
2022-09-07T06:42:19.609Z,89.80
2022-09-07T06:44:46.320Z,89.80
2022-09-07T06:47:13.017Z,89.80
2022-09-07T06:49:39.740Z,89.80
2022-09-07T06:52:06.539Z,89.80
2022-09-07T06:57:19.913Z,89.80
2022-09-07T06:59:46.601Z,89.80
2022-09-07T07:02:14.924Z,89.80
2022-09-07T07:04:41.721Z,89.80
2022-09-07T07:07:13.546Z,89.80
2022-09-07T07:09:41.461Z,89.80
2022-09-07T07:12:08.727Z,89.80
2022-09-07T07:14:38.374Z,89.80
2022-09-07T07:17:08.291Z,89.80
2022-09-07T07:19:34.985Z,89.80
2022-09-07T07:24:48.339Z,89.80
2022-09-07T07:27:15.341Z,89.80
2022-09-07T07:29:42.019Z,89.80
2022-09-07T07:32:08.853Z,89.80
2022-09-07T07:34:35.557Z,89.80
2022-09-07T07:37:02.398Z,89.80
2022-09-07T07:42:15.659Z,89.80
2022-09-07T07:44:42.298Z,89.80
2022-09-07T07:47:09.622Z,89.10
2022-09-07T07:49:36.401Z,89.00
2022-09-07T07:54:50.137Z,89.00
2022-09-07T07:57:18.900Z,88.50
2022-09-07T07:59:45.862Z,87.80
2022-09-07T08:02:16.009Z,87.70
2022-09-07T08:04:42.819Z,87.30
2022-09-07T08:07:11.798Z,87.20
2022-09-07T08:09:43.794Z,87.20
2022-09-07T08:12:19.318Z,86.60
2022-09-07T08:14:48.188Z,86.10
2022-09-07T08:17:17.122Z,86.30
2022-09-07T08:19:43.974Z,85.90
2022-09-07T08:22:11.656Z,85.40
2022-09-07T08:24:38.285Z,84.70
2022-09-07T08:27:05.218Z,85.40
2022-09-07T08:29:34.502Z,85.00
2022-09-07T08:32:06.550Z,84.40
2022-09-07T08:34:36.128Z,84.20
2022-09-07T08:37:03.153Z,84.10
2022-09-07T08:39:29.892Z,84.10
2022-09-07T08:42:04.643Z,83.10
2022-09-07T08:44:41.007Z,83.30
2022-09-07T08:47:11.633Z,83.10
2022-09-07T08:50:15.765Z,83.10
2022-09-07T08:52:55.589Z,82.50
2022-09-07T08:55:37.042Z,82.40
2022-09-07T08:58:48.225Z,82.20
2022-09-07T09:01:36.553Z,82.10
2022-09-07T09:04:23.178Z,79.50
2022-09-07T09:07:02.579Z,79.90
2022-09-07T09:09:32.015Z,80.60
2022-09-07T09:12:14.649Z,80.70
2022-09-07T09:14:59.329Z,80.90
2022-09-07T09:17:51.803Z,81.00
2022-09-07T09:20:24.488Z,80.90
2022-09-07T09:22:56.279Z,80.90
2022-09-07T09:25:31.559Z,81.10
2022-09-07T09:27:58.184Z,81.10
2022-09-07T09:30:25.328Z,81.90
2022-09-07T09:33:20.749Z,81.70
2022-09-07T09:35:50.012Z,81.50
2022-09-07T09:38:33.835Z,80.70
2022-09-07T09:41:05.768Z,79.90
2022-09-07T09:43:46.124Z,80.30
2022-09-07T09:46:34.167Z,80.00
2022-09-07T09:49:16.099Z,79.20
2022-09-07T09:54:42.333Z,78.80
2022-09-07T09:57:38.877Z,78.30
2022-09-07T10:00:11.019Z,78.50
2022-09-07T10:05:30.704Z,78.60
2022-09-07T10:07:57.706Z,76.50
2022-09-07T10:10:26.501Z,76.70
2022-09-07T10:12:54.821Z,76.50
2022-09-07T10:15:39.971Z,76.50
2022-09-07T10:18:14.885Z,76.50
2022-09-07T10:20:41.566Z,76.40
2022-09-07T10:23:23.695Z,76.50
2022-09-07T10:25:51.020Z,75.50
2022-09-07T10:28:21.437Z,75.20
2022-09-07T10:30:51.005Z,73.40
2022-09-07T10:33:25.935Z,72.90
2022-09-07T10:35:58.955Z,72.60
2022-09-07T10:38:28.493Z,71.90
2022-09-07T10:41:01.608Z,71.80
2022-09-07T10:43:45.009Z,72.50
2022-09-07T10:52:44.965Z,72.10
2022-09-07T10:55:26.157Z,70.90
2022-09-07T10:58:05.299Z,67.70
2022-09-07T11:00:55.122Z,65.20
2022-09-07T11:03:27.135Z,64.30
2022-09-07T11:06:29.934Z,64.60
2022-09-07T11:09:21.188Z,65.40
2022-09-07T11:12:07.529Z,66.00
2022-09-07T11:15:14.257Z,66.80
2022-09-07T11:17:58.382Z,67.70
2022-09-07T11:20:37.485Z,68.80
2022-09-07T11:23:22.478Z,68.90
2022-09-07T11:26:15.170Z,69.60
2022-09-07T11:28:47.170Z,70.00
2022-09-07T11:31:18.811Z,70.50
2022-09-07T11:37:37.525Z,71.10
2022-09-07T11:40:14.017Z,70.80
2022-09-07T11:42:53.830Z,70.90
2022-09-07T11:45:28.311Z,71.30
2022-09-07T11:48:03.902Z,70.90
2022-09-07T11:50:36.595Z,70.30
2022-09-07T11:53:06.570Z,70.00
2022-09-07T11:55:38.160Z,70.10
2022-09-07T11:58:41.400Z,68.20
2022-09-07T12:01:13.822Z,68.60
2022-09-07T12:04:05.165Z,69.10
2022-09-07T12:06:53.266Z,69.70
2022-09-07T12:09:22.699Z,70.20
2022-09-07T12:12:08.094Z,70.20
2022-09-07T12:15:06.975Z,68.80
2022-09-07T12:17:39.744Z,69.20
2022-09-07T12:20:18.107Z,69.70
2022-09-07T12:23:04.269Z,70.00
2022-09-07T12:25:33.396Z,69.10
2022-09-07T12:28:00.706Z,68.90
2022-09-07T12:30:28.062Z,69.70
2022-09-07T12:33:04.296Z,68.20
2022-09-07T12:35:34.495Z,67.40
2022-09-07T12:38:03.219Z,67.10
2022-09-07T12:40:35.744Z,66.10
2022-09-07T12:43:14.683Z,67.00
2022-09-07T12:45:41.999Z,66.40
2022-09-07T12:48:17.694Z,67.00
2022-09-07T12:51:00.797Z,67.20
2022-09-07T12:53:46.878Z,67.40
2022-09-07T12:56:27.513Z,66.80
2022-09-07T12:59:18.940Z,64.70
2022-09-07T13:02:18.630Z,65.30
2022-09-07T13:04:56.972Z,66.90
2022-09-07T13:08:06.936Z,67.00
2022-09-07T13:10:47.083Z,66.00
2022-09-07T13:16:14.759Z,63.60
2022-09-07T13:18:43.689Z,64.90
2022-09-07T13:21:11.794Z,64.20
2022-09-07T13:23:43.234Z,64.10
2022-09-07T13:26:13.215Z,64.60
2022-09-07T13:28:56.273Z,63.50
2022-09-07T13:31:34.629Z,64.40
2022-09-07T13:34:21.176Z,64.90
2022-09-07T13:36:48.755Z,65.10
2022-09-07T13:39:20.136Z,65.20
2022-09-07T13:41:52.140Z,64.90
2022-09-07T13:44:26.941Z,64.90
2022-09-07T13:47:17.313Z,65.40
2022-09-07T13:49:55.718Z,65.40
2022-09-07T13:52:53.135Z,65.60
2022-09-07T13:56:00.950Z,66.00
2022-09-07T13:58:39.698Z,66.20
2022-09-07T14:01:16.086Z,66.40
2022-09-07T14:03:53.434Z,65.50
2022-09-07T14:06:22.861Z,65.80
2022-09-07T14:08:54.886Z,65.70
2022-09-07T14:11:23.206Z,65.90
2022-09-07T14:14:11.754Z,66.10
2022-09-07T14:16:38.951Z,66.10
2022-09-07T14:19:23.795Z,66.00
2022-09-07T14:22:00.200Z,66.10
2022-09-07T14:24:36.067Z,65.00
2022-09-07T14:27:04.831Z,65.10
2022-09-07T14:29:35.132Z,63.80
2022-09-07T14:32:04.159Z,63.40
2022-09-07T14:34:34.645Z,64.60
2022-09-07T14:37:06.142Z,65.00
2022-09-07T14:39:37.916Z,63.80
2022-09-07T14:42:05.246Z,62.20
2022-09-07T14:44:38.753Z,61.60
2022-09-07T14:47:11.541Z,61.60
2022-09-07T14:49:38.859Z,61.60
2022-09-07T14:52:05.713Z,61.80
2022-09-07T14:54:34.235Z,61.90
2022-09-07T14:57:30.501Z,62.20
2022-09-07T14:59:57.652Z,61.80
2022-09-07T15:02:31.983Z,61.30
2022-09-07T15:05:26.893Z,60.90
2022-09-07T15:07:58.904Z,61.10
2022-09-07T15:10:30.774Z,61.80
2022-09-07T15:13:01.599Z,61.40
2022-09-07T15:15:33.121Z,61.10
2022-09-07T15:18:08.492Z,61.30
2022-09-07T15:20:44.263Z,61.60
2022-09-07T15:23:16.384Z,61.10
2022-09-07T15:25:49.866Z,61.50
2022-09-07T15:34:10.254Z,60.60
2022-09-07T15:36:47.154Z,59.50
2022-09-07T15:39:26.647Z,59.40
2022-09-07T15:41:53.763Z,59.30
2022-09-07T15:44:25.160Z,59.20
2022-09-07T15:49:43.502Z,58.80
2022-09-07T15:52:13.126Z,59.20
2022-09-07T15:54:40.081Z,58.90
2022-09-07T15:59:53.553Z,58.70
2022-09-07T16:05:07.713Z,57.50
2022-09-07T16:10:22.170Z,57.70
2022-09-07T16:13:10.821Z,58.40
2022-09-07T16:15:35.844Z,58.70
2022-09-07T16:18:02.920Z,59.00
2022-09-07T16:20:32.592Z,59.20
2022-09-07T16:23:15.904Z,59.30
2022-09-07T16:25:57.968Z,58.30
2022-09-07T16:28:25.315Z,58.30
2022-09-07T16:30:52.039Z,57.10
2022-09-07T16:33:18.692Z,56.70
2022-09-07T16:35:59.182Z,56.90
2022-09-07T16:41:29.099Z,55.30
2022-09-07T16:43:56.728Z,55.40
2022-09-07T16:46:25.858Z,55.40
2022-09-07T16:48:53.386Z,56.00
2022-09-07T16:51:21.865Z,56.10
2022-09-07T16:53:50.140Z,56.20
2022-09-07T16:56:19.747Z,56.60
2022-09-07T16:58:48.742Z,57.70
2022-09-07T17:01:19.265Z,58.20
2022-09-07T17:03:49.249Z,58.20
2022-09-07T17:06:17.629Z,58.20
2022-09-07T17:08:44.446Z,58.70
2022-09-07T17:11:16.215Z,59.10
2022-09-07T17:13:43.668Z,59.10
2022-09-07T17:16:11.861Z,58.50
2022-09-07T17:21:29.249Z,59.20
2022-09-07T17:23:56.122Z,59.80
2022-09-07T17:26:26.881Z,60.60
2022-09-07T17:28:56.606Z,60.60
2022-09-07T17:34:13.308Z,60.80
2022-09-07T17:36:40.370Z,60.50
2022-09-07T17:39:16.458Z,60.20
2022-09-07T17:41:44.690Z,60.40
2022-09-07T17:44:11.316Z,60.40
2022-09-07T17:46:38.033Z,60.60
2022-09-07T17:49:06.925Z,60.90
2022-09-07T17:51:33.644Z,61.10
2022-09-07T17:54:02.701Z,61.10
2022-09-07T17:56:31.012Z,61.10
2022-09-07T18:01:45.651Z,61.70
2022-09-07T18:04:13.067Z,61.60
2022-09-07T18:06:41.021Z,61.70
2022-09-07T18:09:07.698Z,62.00
2022-09-07T18:11:50.569Z,62.00
2022-09-07T18:14:18.414Z,63.40
2022-09-07T18:16:48.848Z,64.90
2022-09-07T18:19:15.776Z,65.60
2022-09-07T18:21:43.572Z,65.80
2022-09-07T18:24:20.058Z,67.00
2022-09-07T18:26:52.428Z,67.30
2022-09-07T18:29:29.940Z,67.60
2022-09-07T18:31:59.455Z,67.70
2022-09-07T18:34:26.508Z,67.30
2022-09-07T18:36:53.794Z,67.40
2022-09-07T18:39:21.521Z,67.20
2022-09-07T18:41:48.142Z,66.60
2022-09-07T18:47:01.317Z,66.80
2022-09-07T18:49:28.218Z,67.10
2022-09-07T18:54:41.943Z,67.30
2022-09-07T18:57:08.603Z,67.30
2022-09-07T18:59:35.510Z,67.30
2022-09-07T19:02:04.861Z,67.20
2022-09-07T19:07:26.163Z,67.70
2022-09-07T19:09:56.457Z,67.90
2022-09-07T19:12:24.022Z,68.60
2022-09-07T19:14:50.709Z,67.80
2022-09-07T19:17:17.783Z,68.00
2022-09-07T19:19:44.587Z,68.20
2022-09-07T19:22:11.186Z,68.00
2022-09-07T19:24:40.955Z,68.40
2022-09-07T19:27:07.550Z,67.80
2022-09-07T19:29:34.482Z,67.80
2022-09-07T19:32:04.239Z,68.50
2022-09-07T19:34:36.360Z,68.60
2022-09-07T19:37:04.681Z,68.60
2022-09-07T19:39:31.454Z,69.00
2022-09-07T19:41:58.429Z,68.90
2022-09-07T19:44:25.194Z,69.40
2022-09-07T19:46:51.897Z,69.90
2022-09-07T19:49:18.550Z,69.60
2022-09-07T19:51:45.225Z,70.60
2022-09-07T19:54:13.457Z,70.80
2022-09-07T19:56:42.663Z,70.10
2022-09-07T19:59:09.508Z,69.90
2022-09-07T20:01:38.483Z,69.90
2022-09-07T20:04:07.811Z,69.70
2022-09-07T20:06:37.179Z,69.60
2022-09-07T20:09:04.432Z,69.70
2022-09-07T20:11:32.426Z,69.90
2022-09-07T20:13:59.327Z,70.30
2022-09-07T20:16:27.899Z,70.80
2022-09-07T20:18:54.669Z,71.50
2022-09-07T20:21:23.408Z,71.30
2022-09-07T20:23:50.217Z,70.90
2022-09-07T20:26:19.012Z,70.90
2022-09-07T20:28:45.792Z,70.90
2022-09-07T20:31:14.671Z,70.90
2022-09-07T20:33:42.901Z,71.10
2022-09-07T20:36:12.308Z,71.30
2022-09-07T20:38:41.106Z,71.40
2022-09-07T20:41:12.691Z,71.30
2022-09-07T20:43:39.333Z,71.50
2022-09-07T20:46:06.177Z,71.60
2022-09-07T20:48:33.900Z,71.80
2022-09-07T20:51:03.810Z,71.90
2022-09-07T20:53:30.618Z,72.30
2022-09-07T20:56:25.401Z,72.30
2022-09-07T20:58:57.299Z,72.20
2022-09-07T21:01:24.489Z,72.40
2022-09-07T21:03:53.492Z,72.80
2022-09-07T21:06:21.778Z,73.00
2022-09-07T21:08:49.790Z,73.10
2022-09-07T21:11:19.944Z,73.20
2022-09-07T21:13:47.029Z,73.00
2022-09-07T21:16:16.716Z,73.40
2022-09-07T21:18:44.259Z,73.80
2022-09-07T21:21:20.474Z,73.70
2022-09-07T21:23:48.054Z,74.10
2022-09-07T21:26:19.459Z,74.00
2022-09-07T21:28:46.044Z,73.90
2022-09-07T21:31:13.225Z,74.10
2022-09-07T21:33:39.816Z,74.00
2022-09-07T21:36:09.459Z,74.10
2022-09-07T21:38:37.549Z,74.30
2022-09-07T21:41:08.726Z,74.50
2022-09-07T21:43:35.711Z,74.60
2022-09-07T21:46:17.063Z,74.80
2022-09-07T21:48:45.416Z,75.10
2022-09-07T21:51:13.514Z,75.00
2022-09-07T21:53:40.300Z,74.80
2022-09-07T21:56:10.460Z,74.90
2022-09-07T21:58:37.126Z,75.30
2022-09-07T22:01:16.868Z,75.20
2022-09-07T22:03:52.715Z,75.70
2022-09-07T22:06:19.326Z,76.30
2022-09-07T22:08:45.919Z,76.10
2022-09-07T22:11:15.806Z,76.00
2022-09-07T22:13:43.299Z,75.70
2022-09-07T22:16:10.764Z,75.90
2022-09-07T22:18:38.289Z,76.00
2022-09-07T22:21:05.972Z,75.90
2022-09-07T22:23:34.477Z,76.10
2022-09-07T22:26:01.579Z,76.30
2022-09-07T22:28:32.378Z,76.60
2022-09-07T22:31:29.642Z,76.60
2022-09-07T22:33:57.333Z,76.60
2022-09-07T22:36:28.239Z,76.70
2022-09-07T22:38:57.642Z,76.80
2022-09-07T22:41:27.587Z,77.10
2022-09-07T22:43:54.783Z,77.20
2022-09-07T22:46:23.110Z,77.20
2022-09-07T22:48:50.148Z,77.40
2022-09-07T22:51:17.072Z,77.30
2022-09-07T22:53:44.210Z,77.30
2022-09-07T22:56:22.379Z,77.40
2022-09-07T22:58:51.984Z,77.50
2022-09-07T23:01:20.775Z,77.50
2022-09-07T23:03:47.744Z,77.70
2022-09-07T23:06:19.231Z,77.80
2022-09-07T23:08:45.826Z,78.10
2022-09-07T23:11:12.430Z,78.10
2022-09-07T23:13:39.057Z,78.70
2022-09-07T23:16:07.002Z,78.90
2022-09-07T23:18:34.689Z,78.90
2022-09-07T23:21:02.031Z,78.90
2022-09-07T23:23:29.582Z,78.90
2022-09-07T23:25:56.619Z,78.90
2022-09-07T23:28:23.386Z,79.10
2022-09-07T23:30:51.252Z,79.20
2022-09-07T23:33:18.317Z,79.60
2022-09-07T23:35:59.017Z,79.50
2022-09-07T23:38:26.303Z,80.10
2022-09-07T23:40:53.646Z,80.60
2022-09-07T23:43:21.736Z,80.90
2022-09-07T23:45:48.469Z,80.80
2022-09-07T23:48:15.267Z,80.50
2022-09-07T23:50:44.207Z,80.30
2022-09-07T23:53:11.134Z,80.30
2022-09-07T23:55:38.470Z,80.30
2022-09-07T23:58:05.583Z,80.00
